MAPA DE AEROPUERTO

INFORMACIÓN METAR y TAF

METAR FOR LEGR
ADDS - METARS form results

(0939 UTC 22 January 2021)
Data provider http://aviationweather.gov/metar/data/
 
METAR text: LEGR 220930Z 29018KT 250V320 9999 FEW020 SCT040 13/07 Q1018
Conditions at: LEGR (GRANADA AIRPORT , ES) observed 0930 UTC 22 January 2021
Temperature: 13.0°C (55°F)
Dewpoint: 7.0°C (45°F) [RH = 67%]
Pressure (altimeter): 30.06 inches Hg (1018.0 mb)
Winds: from the WNW (290 degrees) at 21 MPH (18 knots; 9.3 m/s)
Visibility: 6 or more miles (10+ km)
Ceiling: at least 12,000 feet AGL
Clouds: few clouds at 2000 feet AGL
scattered clouds at 4000 feet AGL
Weather: no significant weather observed at this time

METAR text: LEGR 220900Z 28014KT 9999 FEW020 SCT040 12/09 Q1018
Conditions at: LEGR (GRANADA AIRPORT , ES) observed 0900 UTC 22 January 2021
Temperature: 12.0°C (54°F)
Dewpoint: 9.0°C (48°F) [RH = 82%]
Pressure (altimeter): 30.06 inches Hg (1018.0 mb)
Winds: from the W (280 degrees) at 16 MPH (14 knots; 7.2 m/s)
Visibility: 6 or more miles (10+ km)
Ceiling: at least 12,000 feet AGL
Clouds: few clouds at 2000 feet AGL
scattered clouds at 4000 feet AGL
Weather: no significant weather observed at this time

Forecast for: LEGR (GRANADA AIRPORT , ES)
Text: TAF LEGR 220800Z 2209/2309 28015KT 9999 SCT020 BKN035 TX13/2215Z TN04/2307Z
Forecast period: 0900 to 1700 UTC 22 January 2021
Forecast type: FROM: standard forecast or significant change
Winds: from the W (280 degrees) at 17 MPH (15 knots; 7.7 m/s)
Visibility: 6 or more miles (10+ km)
Ceiling: 3500 feet AGL
Clouds: scattered clouds at 2000 feet AGL
broken clouds at 3500 feet AGL
Weather: no significant weather forecast for this period
Text: PROB40
Forecast period: 0900 to 1900 UTC 22 January 2021
Forecast type: TEMPORARY: The following changes expected for less than half the time period
Winds: from the W (280 degrees) at 21 MPH (18 knots; 9.3 m/s)
gusting to 34 MPH (30 knots; 15.4 m/s)
Visibility: 2.49 miles (4.01 km)
Ceiling: 1000 feet AGL
Clouds: broken clouds at 1000 feet AGL
Weather: -RA  (light rain)
Text: TEMPO 2209/2219 28018G30KT 4000 -RA BKN010
Forecast period: 1700 UTC 22 January 2021 to 0900 UTC 23 January 2021
Forecast type: BECOMING: Conditions expected to become as follows by 2000 UTC 22 January 2021
Winds: from the W (280 degrees) at 6 MPH (5 knots; 2.6 m/s)
Visibility: 6 or more miles (10+ km)
Ceiling: 3500 feet AGL
Clouds: scattered clouds at 2000 feet AGL
broken clouds at 3500 feet AGL
Weather: no significant weather forecast for this period
Text: BECMG 2217/2220 28005KT
Forecast period: 0200 to 0800 UTC 23 January 2021
Forecast type: TEMPORARY: The following changes expected for less than half the time period
Visibility: 2.49 miles (4.01 km)
Ceiling: 1400 feet AGL
Clouds: broken clouds at 1400 feet AGL
Weather: BR  (mist)